NEWTON-CITY-COUNTY (EWK) CLASS E
     UNICOM 123.00    AWOS 123.875 (316-283-8789)   FBO 316-254-6084
RWY 17-35: 7003' x 100' (CONCRETE)
     RWY 17: MALSR. VASI
     RWY 35: REIL. VASI
RWY 08-26: 3501' x 60' (ASPHALT)
     RWY 08: REIL. PAPI
     RWY 26: REIL. PAPI

 

Available data for KEWK from the past 2 hours
NEWTON, KS
Metar
KEWK 210906Z AUTO 16008KT 8SM VCTS RA SCT006 BKN010 OVC016 12/11 A2965 RMK AO2 LTG DSNT SE AND SW TSB06 CIG 008V013 P0005

09:06 UTC

Wind: 160° 8kt

Visibility: 8 SM

Sky: SCT 600 ft

Temp: 12 deg C / 53.6 deg F

Dewpoint: 11 deg C / 51.8 deg F

Pressure: 29.65 inHg

 

Enter your text here...